createdAt,value
2022-12-03T00:00:56.534Z,100631.69
2022-12-03T00:01:58.031Z,100636.16
2022-12-03T00:02:59.670Z,100634.63
2022-12-03T00:04:01.398Z,100632.50
2022-12-03T00:05:02.953Z,100629.31
2022-12-03T00:06:04.619Z,100632.94
2022-12-03T00:07:06.865Z,100631.84
2022-12-03T00:08:08.603Z,100634.19
2022-12-03T00:09:10.185Z,100632.03
2022-12-03T00:10:11.853Z,100628.78
2022-12-03T00:11:13.519Z,100628.41
2022-12-03T00:12:14.986Z,100630.34
2022-12-03T00:13:16.472Z,100623.09
2022-12-03T00:14:19.182Z,100634.19
2022-12-03T00:15:20.629Z,100629.50
2022-12-03T00:16:22.160Z,100634.19
2022-12-03T00:17:23.744Z,100623.09
2022-12-03T00:18:25.251Z,100628.22
2022-12-03T00:19:26.746Z,100627.25
2022-12-03T00:20:28.245Z,100627.25
2022-12-03T00:21:29.736Z,100624.47
2022-12-03T00:22:31.244Z,100619.81
2022-12-03T00:23:35.968Z,100622.41
2022-12-03T00:24:41.721Z,100625.53
2022-12-03T00:25:43.208Z,100627.00
2022-12-03T00:26:44.876Z,100624.84
2022-12-03T00:27:47.398Z,100627.25
2022-12-03T00:28:48.879Z,100629.81
2022-12-03T00:29:50.426Z,100629.69
2022-12-03T00:30:54.210Z,100627.53
2022-12-03T00:31:55.748Z,100629.81
2022-12-03T00:32:57.272Z,100633.84
2022-12-03T00:33:58.768Z,100626.00
2022-12-03T00:35:00.244Z,100627.94
2022-12-03T00:36:01.757Z,100627.28
2022-12-03T00:37:03.214Z,100627.53
2022-12-03T00:38:04.721Z,100626.44
2022-12-03T00:39:06.322Z,100619.81
2022-12-03T00:40:08.128Z,100624.75
2022-12-03T00:41:09.636Z,100622.41
2022-12-03T00:42:11.114Z,100621.09
2022-12-03T00:43:12.886Z,100622.78
2022-12-03T00:44:14.403Z,100613.16
2022-12-03T00:45:15.942Z,100611.00
2022-12-03T00:46:21.300Z,100617.38
2022-12-03T00:47:23.294Z,100619.31
2022-12-03T00:48:24.826Z,100617.38
2022-12-03T00:49:26.415Z,100621.69
2022-12-03T00:50:27.935Z,100615.56
2022-12-03T00:51:29.415Z,100621.09
2022-12-03T00:52:30.918Z,100605.97
2022-12-03T00:53:32.411Z,100613.06
2022-12-03T00:54:34.514Z,100616.91
2022-12-03T00:55:36.119Z,100613.69
2022-12-03T00:56:37.588Z,100618.75
2022-12-03T00:57:39.046Z,100609.16
2022-12-03T00:58:40.563Z,100613.41
2022-12-03T00:59:42.093Z,100622.31
2022-12-03T01:00:43.566Z,100610.84
2022-12-03T01:01:45.116Z,100612.59
2022-12-03T01:02:46.625Z,100619.81
2022-12-03T01:03:48.120Z,100616.41
2022-12-03T01:04:49.700Z,100615.94
2022-12-03T01:05:51.197Z,100615.31
2022-12-03T01:06:52.641Z,100616.78
2022-12-03T01:07:54.242Z,100618.00
2022-12-03T01:08:55.782Z,100609.06
2022-12-03T01:09:57.286Z,100624.19
2022-12-03T01:10:58.787Z,100611.19
2022-12-03T01:12:00.274Z,100617.78
2022-12-03T01:13:01.720Z,100623.31
2022-12-03T01:14:03.911Z,100623.09
2022-12-03T01:15:05.717Z,100616.91
2022-12-03T01:16:07.223Z,100625.03
2022-12-03T01:17:08.776Z,100621.41
2022-12-03T01:18:10.249Z,100616.25
2022-12-03T01:19:15.784Z,100612.41
2022-12-03T01:20:17.441Z,100621.78
2022-12-03T01:21:19.324Z,100622.47
2022-12-03T01:22:20.838Z,100614.16
2022-12-03T01:23:22.318Z,100625.88
2022-12-03T01:24:23.814Z,100618.47
2022-12-03T01:25:25.608Z,100622.69
2022-12-03T01:26:27.207Z,100622.31
2022-12-03T01:27:28.669Z,100631.69
2022-12-03T01:28:31.454Z,100621.09
2022-12-03T01:29:32.982Z,100615.56
2022-12-03T01:30:54.644Z,100625.84
2022-12-03T01:32:14.889Z,100619.44
2022-12-03T01:33:16.406Z,100619.41
2022-12-03T01:34:18.129Z,100618.13
2022-12-03T01:35:19.665Z,100623.44
2022-12-03T01:36:21.281Z,100623.66
2022-12-03T01:37:23.451Z,100620.47
2022-12-03T01:38:24.928Z,100613.63
2022-12-03T01:39:26.419Z,100622.41
2022-12-03T01:40:27.855Z,100623.84
2022-12-03T01:41:29.380Z,100619.78
2022-12-03T01:42:32.558Z,100614.69
2022-12-03T01:43:34.180Z,100619.44
2022-12-03T01:44:35.713Z,100624.97
2022-12-03T01:45:37.144Z,100619.81
2022-12-03T01:46:39.172Z,100623.66
2022-12-03T01:47:41.353Z,100624.53
2022-12-03T01:48:42.872Z,100621.59
2022-12-03T01:49:45.717Z,100627.13
2022-12-03T01:50:47.182Z,100623.91
2022-12-03T01:51:48.701Z,100617.28
2022-12-03T01:52:50.148Z,100619.53
2022-12-03T01:53:51.707Z,100627.84
2022-12-03T01:54:54.418Z,100631.44
2022-12-03T01:55:56.061Z,100636.13
2022-12-03T01:56:57.610Z,100637.22
2022-12-03T01:57:59.557Z,100636.97
2022-12-03T01:59:01.043Z,100640.41
2022-12-03T02:00:02.626Z,100638.72
2022-12-03T02:01:07.093Z,100645.94
2022-12-03T02:02:11.534Z,100643.63
2022-12-03T02:03:15.730Z,100646.63
2022-12-03T02:04:17.229Z,100642.56
2022-12-03T02:05:21.631Z,100638.72
2022-12-03T02:06:23.089Z,100640.41
2022-12-03T02:07:27.215Z,100631.25
2022-12-03T02:08:29.590Z,100631.88
2022-12-03T02:09:31.081Z,100639.97
2022-12-03T02:10:33.018Z,100632.91
2022-12-03T02:11:37.797Z,100635.06
2022-12-03T02:12:49.123Z,100649.75
2022-12-03T02:13:51.166Z,100639.06
2022-12-03T02:14:52.716Z,100640.28
2022-12-03T02:15:54.511Z,100633.25
2022-12-03T02:16:56.043Z,100638.09
2022-12-03T02:17:57.743Z,100630.63
2022-12-03T02:18:59.318Z,100639.53
2022-12-03T02:20:01.708Z,100645.94
2022-12-03T02:21:09.214Z,100645.78
2022-12-03T02:22:16.731Z,100641.09
2022-12-03T02:23:31.221Z,100640.06
2022-12-03T02:24:41.750Z,100645.78
2022-12-03T02:25:43.212Z,100640.47
2022-12-03T02:26:44.785Z,100642.81
2022-12-03T02:27:46.327Z,100633.38
2022-12-03T02:28:47.788Z,100632.28
2022-12-03T02:29:49.301Z,100634.44
2022-12-03T02:30:50.800Z,100636.53
2022-12-03T02:31:52.396Z,100636.91
2022-12-03T02:32:54.089Z,100635.22
2022-12-03T02:33:55.579Z,100637.97
2022-12-03T02:34:57.058Z,100637.38
2022-12-03T02:36:03.354Z,100632.69
2022-12-03T02:37:06.064Z,100637.38
2022-12-03T02:38:07.527Z,100636.75
2022-12-03T02:39:09.001Z,100634.22
2022-12-03T02:40:11.129Z,100635.69
2022-12-03T02:41:33.159Z,100634.59
2022-12-03T02:42:35.308Z,100629.28
2022-12-03T02:43:36.806Z,100632.91
2022-12-03T02:44:38.284Z,100632.53
2022-12-03T02:45:40.226Z,100636.13
2022-12-03T02:46:41.787Z,100636.97
2022-12-03T02:47:47.360Z,100630.38
2022-12-03T02:48:48.821Z,100631.88
2022-12-03T02:49:50.309Z,100628.03
2022-12-03T02:50:53.013Z,100636.13
2022-12-03T02:51:54.445Z,100630.59
2022-12-03T02:52:56.341Z,100625.69
2022-12-03T02:53:57.857Z,100630.59
2022-12-03T02:54:59.411Z,100633.38
2022-12-03T02:56:01.380Z,100629.53
2022-12-03T02:57:02.863Z,100625.44
2022-12-03T02:58:04.553Z,100633.53
2022-12-03T02:59:06.107Z,100633.53
2022-12-03T03:00:08.397Z,100630.13
2022-12-03T03:01:09.971Z,100630.59
2022-12-03T03:02:12.724Z,100634.88
2022-12-03T03:03:14.218Z,100630.78
2022-12-03T03:04:15.669Z,100630.59
2022-12-03T03:05:18.319Z,100629.69
2022-12-03T03:06:19.781Z,100629.28
2022-12-03T03:07:21.460Z,100634.38
2022-12-03T03:08:23.069Z,100631.97
2022-12-03T03:09:24.667Z,100633.25
2022-12-03T03:10:26.241Z,100633.66
2022-12-03T03:11:27.785Z,100634.31
2022-12-03T03:12:29.262Z,100636.84
2022-12-03T03:13:31.299Z,100630.84
2022-12-03T03:14:32.956Z,100638.09
2022-12-03T03:15:35.756Z,100637.22
2022-12-03T03:16:37.368Z,100637.28
2022-12-03T03:17:39.092Z,100636.00
2022-12-03T03:18:40.790Z,100629.22
2022-12-03T03:19:42.264Z,100630.75
2022-12-03T03:20:43.827Z,100641.69
2022-12-03T03:21:45.319Z,100636.53
2022-12-03T03:22:46.789Z,100634.59
2022-12-03T03:23:48.312Z,100633.97
2022-12-03T03:24:49.985Z,100629.53
2022-12-03T03:25:54.180Z,100635.69
2022-12-03T03:26:56.685Z,100635.69
2022-12-03T03:27:58.193Z,100612.56
2022-12-03T03:29:00.585Z,100632.69
2022-12-03T03:30:03.257Z,100636.44
2022-12-03T03:31:05.082Z,100627.28
2022-12-03T03:32:06.696Z,100622.81
2022-12-03T03:33:08.198Z,100633.06
2022-12-03T03:34:09.664Z,100617.38
2022-12-03T03:35:11.518Z,100626.53
2022-12-03T03:36:13.001Z,100620.97
2022-12-03T03:37:15.275Z,100633.56
2022-12-03T03:38:17.601Z,100623.13
2022-12-03T03:39:19.053Z,100624.00
2022-12-03T03:40:20.859Z,100628.44
2022-12-03T03:41:22.397Z,100622.28
2022-12-03T03:42:23.861Z,100626.13
2022-12-03T03:43:25.536Z,100631.88
2022-12-03T03:44:27.500Z,100620.81
2022-12-03T03:45:29.719Z,100625.06
2022-12-03T03:46:33.323Z,100627.59
2022-12-03T03:47:34.840Z,100621.59
2022-12-03T03:48:36.365Z,100620.97
2022-12-03T03:49:37.883Z,100618.22
2022-12-03T03:50:39.381Z,100621.22
2022-12-03T03:51:40.921Z,100618.69
2022-12-03T03:52:42.661Z,100619.69
2022-12-03T03:53:44.650Z,100622.44
2022-12-03T03:54:46.191Z,100625.59
2022-12-03T03:55:47.736Z,100621.22
2022-12-03T03:56:51.090Z,100619.97
2022-12-03T03:57:52.592Z,100621.66
2022-12-03T03:58:54.912Z,100619.53
2022-12-03T03:59:57.501Z,100619.69
2022-12-03T04:00:59.053Z,100617.75
2022-12-03T04:02:00.657Z,100622.81
2022-12-03T04:03:03.305Z,100621.50
2022-12-03T04:04:07.312Z,100623.25
2022-12-03T04:05:11.515Z,100621.94
2022-12-03T04:06:14.332Z,100621.09
2022-12-03T04:07:16.017Z,100622.59
2022-12-03T04:08:17.751Z,100622.16
2022-12-03T04:09:19.356Z,100613.69
2022-12-03T04:10:39.497Z,100606.69
2022-12-03T04:11:59.718Z,100621.50
2022-12-03T04:13:01.186Z,100609.78
2022-12-03T04:14:02.709Z,100615.56
2022-12-03T04:15:05.334Z,100608.94
2022-12-03T04:16:07.012Z,100618.47
2022-12-03T04:17:08.558Z,100614.38
2022-12-03T04:18:28.741Z,100614.00
2022-12-03T04:19:30.226Z,100622.94
2022-12-03T04:20:32.693Z,100616.31
2022-12-03T04:21:53.037Z,100614.63
2022-12-03T04:22:54.481Z,100611.63
2022-12-03T04:23:55.994Z,100617.16
2022-12-03T04:25:17.418Z,100609.53
2022-12-03T04:26:37.575Z,100607.06
2022-12-03T04:27:57.587Z,100604.91
2022-12-03T04:28:59.140Z,100607.25
2022-12-03T04:30:00.666Z,100608.31
2022-12-03T04:31:22.217Z,100603.22
2022-12-03T04:32:42.522Z,100608.97
2022-12-03T04:34:02.945Z,100600.31
2022-12-03T04:35:23.713Z,100599.31
2022-12-03T04:36:25.326Z,100612.28
2022-12-03T04:37:26.914Z,100603.53
2022-12-03T04:38:28.385Z,100606.44
2022-12-03T04:39:30.697Z,100608.59
2022-12-03T04:40:50.898Z,100605.38
2022-12-03T04:41:52.390Z,100604.91
2022-12-03T04:42:53.876Z,100605.31
2022-12-03T04:44:13.858Z,100608.31
2022-12-03T04:45:15.348Z,100598.31
2022-12-03T04:46:16.831Z,100608.94
2022-12-03T04:47:19.205Z,100599.53
2022-12-03T04:48:20.686Z,100592.09
2022-12-03T04:49:22.246Z,100603.53
2022-12-03T04:50:23.772Z,100607.38
2022-12-03T04:51:25.275Z,100607.38
2022-12-03T04:52:26.742Z,100604.47
2022-12-03T04:53:28.289Z,100606.78
2022-12-03T04:54:29.783Z,100602.69
2022-12-03T04:55:31.226Z,100605.22
2022-12-03T04:56:32.731Z,100604.00
2022-12-03T04:57:34.198Z,100596.06
2022-12-03T04:58:35.785Z,100598.84
2022-12-03T04:59:37.427Z,100604.16
2022-12-03T05:00:39.164Z,100605.22
2022-12-03T05:01:40.761Z,100599.69
2022-12-03T05:02:42.303Z,100597.53
2022-12-03T05:03:43.809Z,100602.69
2022-12-03T05:04:45.304Z,100608.00
2022-12-03T05:05:46.802Z,100601.78
2022-12-03T05:06:48.313Z,100592.84
2022-12-03T05:07:49.932Z,100599.69
2022-12-03T05:08:51.511Z,100577.69
2022-12-03T05:09:52.973Z,100595.47
2022-12-03T05:10:54.516Z,100588.00
2022-12-03T05:11:56.638Z,100592.94
2022-12-03T05:12:58.085Z,100605.94
2022-12-03T05:13:59.606Z,100591.63
2022-12-03T05:15:03.917Z,100598.00
2022-12-03T05:16:05.473Z,100602.03
2022-12-03T05:17:07.046Z,100598.78
2022-12-03T05:18:08.573Z,100599.63
2022-12-03T05:19:10.061Z,100593.63
2022-12-03T05:20:30.317Z,100599.25
2022-12-03T05:21:31.803Z,100590.06
2022-12-03T05:22:33.266Z,100594.94
2022-12-03T05:23:34.790Z,100593.88
2022-12-03T05:24:36.230Z,100596.03
2022-12-03T05:25:37.658Z,100592.00
2022-12-03T05:26:39.210Z,100602.03
2022-12-03T05:27:40.672Z,100593.06
2022-12-03T05:28:42.160Z,100604.56
2022-12-03T05:29:43.643Z,100604.34
2022-12-03T05:30:45.207Z,100598.78
2022-12-03T05:31:46.730Z,100591.56
2022-12-03T05:32:48.248Z,100592.16
2022-12-03T05:33:49.733Z,100595.19
2022-12-03T05:34:51.416Z,100588.19
2022-12-03T05:35:53.134Z,100586.88
2022-12-03T05:36:54.626Z,100591.94
2022-12-03T05:37:56.126Z,100582.19
2022-12-03T05:38:57.601Z,100581.09
2022-12-03T05:39:59.149Z,100589.16
2022-12-03T05:41:00.593Z,100585.56
2022-12-03T05:42:20.651Z,100587.00
2022-12-03T05:43:22.123Z,100577.72
2022-12-03T05:44:23.585Z,100576.63
2022-12-03T05:45:25.690Z,100582.56
2022-12-03T05:46:27.325Z,100581.94
2022-12-03T05:47:29.826Z,100586.03
2022-12-03T05:48:31.277Z,100585.63
2022-12-03T05:49:32.819Z,100575.78
2022-12-03T05:50:35.437Z,100580.47
2022-12-03T05:51:50.560Z,100582.63
2022-12-03T05:52:55.244Z,100578.78
2022-12-03T05:53:56.778Z,100575.84
2022-12-03T05:54:58.586Z,100584.16
2022-12-03T05:56:00.080Z,100579.22
2022-12-03T05:57:01.550Z,100574.94
2022-12-03T05:58:03.193Z,100585.56
2022-12-03T05:59:04.667Z,100586.41
2022-12-03T06:00:07.039Z,100583.41
2022-12-03T06:01:13.889Z,100583.25
2022-12-03T06:02:15.526Z,100585.84
2022-12-03T06:03:17.205Z,100588.63
2022-12-03T06:04:18.843Z,100591.84
2022-12-03T06:05:20.473Z,100581.47
2022-12-03T06:06:21.933Z,100587.38
2022-12-03T06:07:24.579Z,100581.38
2022-12-03T06:08:26.320Z,100582.47
2022-12-03T06:09:27.803Z,100585.00
2022-12-03T06:10:29.465Z,100593.53
2022-12-03T06:11:33.897Z,100583.53
2022-12-03T06:12:35.546Z,100585.84
2022-12-03T06:13:37.055Z,100577.09
2022-12-03T06:14:38.553Z,100577.72
2022-12-03T06:15:43.664Z,100578.56
2022-12-03T06:16:45.614Z,100576.16
2022-12-03T06:17:47.267Z,100588.31
2022-12-03T06:18:48.803Z,100581.75
2022-12-03T06:19:50.353Z,100575.09
2022-12-03T06:20:51.851Z,100587.78
2022-12-03T06:21:53.405Z,100582.47
2022-12-03T06:22:54.865Z,100576.31
2022-12-03T06:23:56.328Z,100579.47
2022-12-03T06:25:02.071Z,100580.91
2022-12-03T06:26:06.475Z,100576.69
2022-12-03T06:27:07.963Z,100568.16
2022-12-03T06:28:09.562Z,100575.63
2022-12-03T06:29:11.032Z,100580.16
2022-12-03T06:30:13.093Z,100578.84
2022-12-03T06:31:14.712Z,100569.84
2022-12-03T06:32:16.290Z,100573.25
2022-12-03T06:33:17.816Z,100564.94
2022-12-03T06:34:19.306Z,100562.19
2022-12-03T06:35:20.887Z,100562.19
2022-12-03T06:36:24.535Z,100564.16
2022-12-03T06:37:25.980Z,100563.56
2022-12-03T06:38:27.458Z,100566.94
2022-12-03T06:39:28.983Z,100562.72
2022-12-03T06:40:30.514Z,100566.13
2022-12-03T06:41:32.050Z,100567.06
2022-12-03T06:42:33.571Z,100579.22
2022-12-03T06:43:35.060Z,100574.31
2022-12-03T06:44:36.741Z,100567.06
2022-12-03T06:45:40.089Z,100565.53
2022-12-03T06:46:44.845Z,100565.94
2022-12-03T06:47:46.397Z,100569.16
2022-12-03T06:48:47.907Z,100556.16
2022-12-03T06:49:49.489Z,100560.47
2022-12-03T06:50:50.955Z,100568.16
2022-12-03T06:51:52.680Z,100556.84
2022-12-03T06:52:54.162Z,100567.59
2022-12-03T06:53:55.633Z,100562.06
2022-12-03T06:54:57.483Z,100568.91
2022-12-03T06:55:58.994Z,100572.75
2022-12-03T06:57:00.588Z,100561.22
2022-12-03T06:58:02.091Z,100559.69
2022-12-03T06:59:03.533Z,100557.78
2022-12-03T07:00:05.732Z,100560.31
2022-12-03T07:01:07.339Z,100565.16
2022-12-03T07:02:09.476Z,100559.84
2022-12-03T07:03:11.136Z,100569.22
2022-12-03T07:04:12.850Z,100570.06
2022-12-03T07:05:14.351Z,100565.84
2022-12-03T07:06:15.852Z,100569.22
2022-12-03T07:07:17.356Z,100571.16
2022-12-03T07:08:19.005Z,100565.84
2022-12-03T07:09:20.549Z,100570.91
2022-12-03T07:10:22.099Z,100574.78
2022-12-03T07:11:32.657Z,100585.00
2022-12-03T07:12:34.125Z,100582.22
2022-12-03T07:13:35.661Z,100583.06
2022-12-03T07:14:37.117Z,100584.75
2022-12-03T07:15:38.642Z,100586.31
2022-12-03T07:16:40.328Z,100581.38
2022-12-03T07:17:41.909Z,100583.53
2022-12-03T07:18:43.427Z,100587.38
2022-12-03T07:19:44.874Z,100583.75
2022-12-03T07:20:46.387Z,100594.44
2022-12-03T07:21:47.837Z,100594.59
2022-12-03T07:22:49.336Z,100591.63
2022-12-03T07:23:50.818Z,100594.38
2022-12-03T07:24:52.928Z,100595.22
2022-12-03T07:25:54.985Z,100599.44
2022-12-03T07:26:56.979Z,100601.75
2022-12-03T07:27:58.597Z,100595.97
2022-12-03T07:29:00.193Z,100599.38
2022-12-03T07:30:01.675Z,100600.00
2022-12-03T07:31:03.231Z,100593.41
2022-12-03T07:32:04.955Z,100566.75
2022-12-03T07:33:06.419Z,100603.22
2022-12-03T07:34:08.095Z,100612.16
2022-12-03T07:35:09.689Z,100605.31
2022-12-03T07:36:11.181Z,100608.09
2022-12-03T07:37:12.666Z,100609.53
2022-12-03T07:38:15.097Z,100606.53
2022-12-03T07:39:16.663Z,100610.78
2022-12-03T07:40:18.136Z,100603.53
2022-12-03T07:41:19.877Z,100603.06
2022-12-03T07:42:21.400Z,100597.09
2022-12-03T07:43:22.935Z,100601.56
2022-12-03T07:44:24.419Z,100597.47
2022-12-03T07:45:25.924Z,100598.78
2022-12-03T07:46:27.486Z,100599.88
2022-12-03T07:47:29.049Z,100598.78
2022-12-03T07:48:30.539Z,100594.16
2022-12-03T07:49:33.123Z,100597.53
2022-12-03T07:50:34.646Z,100594.56
2022-12-03T07:51:36.154Z,100593.91
2022-12-03T07:52:37.744Z,100597.78
2022-12-03T07:53:39.246Z,100593.31
2022-12-03T07:54:40.817Z,100596.31
2022-12-03T07:55:42.319Z,100594.63
2022-12-03T07:56:43.779Z,100598.63
2022-12-03T07:57:45.250Z,100597.53
2022-12-03T07:58:46.701Z,100590.72
2022-12-03T07:59:48.222Z,100593.03
2022-12-03T08:00:49.798Z,100597.47
2022-12-03T08:01:51.447Z,100587.25
2022-12-03T08:02:53.055Z,100595.78
2022-12-03T08:03:54.557Z,100590.00
2022-12-03T08:04:56.449Z,100589.78
2022-12-03T08:05:58.076Z,100589.78
2022-12-03T08:06:59.524Z,100601.72
2022-12-03T08:08:01.369Z,100588.94
2022-12-03T08:09:02.963Z,100593.88
2022-12-03T08:10:04.930Z,100590.88
2022-12-03T08:11:06.487Z,100600.00
2022-12-03T08:12:13.227Z,100593.88
2022-12-03T08:13:14.985Z,100592.78
2022-12-03T08:14:17.247Z,100594.25
2022-12-03T08:15:19.742Z,100591.25
2022-12-03T08:16:21.738Z,100596.16
2022-12-03T08:17:23.267Z,100594.94
2022-12-03T08:18:24.804Z,100591.69
2022-12-03T08:19:26.315Z,100585.94
2022-12-03T08:20:28.581Z,100592.31
2022-12-03T08:21:30.101Z,100599.53
2022-12-03T08:22:31.582Z,100600.63
2022-12-03T08:23:33.737Z,100598.31
2022-12-03T08:24:35.270Z,100603.41
2022-12-03T08:25:36.734Z,100597.84
2022-12-03T08:26:38.209Z,100595.50
2022-12-03T08:27:39.731Z,100605.25
2022-12-03T08:28:41.227Z,100601.41
2022-12-03T08:29:42.734Z,100596.47
2022-12-03T08:30:44.545Z,100600.94
2022-12-03T08:31:47.504Z,100597.69
2022-12-03T08:32:49.078Z,100600.88
2022-12-03T08:33:51.575Z,100608.34
2022-12-03T08:34:53.258Z,100596.00
2022-12-03T08:35:54.923Z,100603.00
2022-12-03T08:36:58.126Z,100594.50
2022-12-03T08:38:01.531Z,100597.88
2022-12-03T08:39:07.034Z,100585.72
2022-12-03T08:40:18.754Z,100595.94
2022-12-03T08:41:40.354Z,100591.72
2022-12-03T08:42:41.894Z,100597.88
2022-12-03T08:43:44.268Z,100590.00
2022-12-03T08:44:45.780Z,100588.78
2022-12-03T08:45:49.750Z,100588.53
2022-12-03T08:47:20.771Z,100598.09
2022-12-03T08:48:24.782Z,100594.63
2022-12-03T08:49:26.261Z,100587.16
2022-12-03T08:50:31.378Z,100593.31
2022-12-03T08:51:32.852Z,100584.53
2022-12-03T08:52:34.611Z,100590.31
2022-12-03T08:53:36.851Z,100583.44
2022-12-03T08:54:38.318Z,100589.84
2022-12-03T08:55:46.169Z,100589.63
2022-12-03T08:56:47.642Z,100595.19
2022-12-03T08:57:49.217Z,100596.63
2022-12-03T08:58:53.740Z,100594.47
2022-12-03T08:59:59.706Z,100586.16
2022-12-03T09:01:10.680Z,100587.59
2022-12-03T09:02:13.559Z,100585.53
2022-12-03T09:03:16.295Z,100589.69
2022-12-03T09:04:26.498Z,100588.63
2022-12-03T09:05:29.216Z,100592.25
2022-12-03T09:06:30.697Z,100589.84
2022-12-03T09:07:32.293Z,100597.72
2022-12-03T09:08:33.862Z,100589.41
2022-12-03T09:09:35.801Z,100594.94
2022-12-03T09:10:37.865Z,100588.91
2022-12-03T09:11:39.552Z,100597.22
2022-12-03T09:12:41.089Z,100582.31
2022-12-03T09:13:42.617Z,100579.53
2022-12-03T09:14:44.087Z,100581.22
2022-12-03T09:15:45.589Z,100576.53
2022-12-03T09:16:47.802Z,100582.91
2022-12-03T09:17:49.614Z,100586.38
2022-12-03T09:18:51.105Z,100577.47
2022-12-03T09:19:52.773Z,100580.84
2022-12-03T09:20:54.229Z,100574.59
2022-12-03T09:21:55.834Z,100575.69
2022-12-03T09:22:57.385Z,100566.28
2022-12-03T09:23:58.854Z,100573.13
2022-12-03T09:25:00.366Z,100570.97
2022-12-03T09:26:01.846Z,100565.81
2022-12-03T09:27:03.331Z,100573.06
2022-12-03T09:28:04.862Z,100570.91
2022-12-03T09:29:11.723Z,100570.66
2022-12-03T09:30:13.853Z,100573.06
2022-12-03T09:31:15.699Z,100577.53
2022-12-03T09:32:18.763Z,100577.53
2022-12-03T09:33:20.559Z,100580.66
2022-12-03T09:34:22.118Z,100585.75
2022-12-03T09:35:23.599Z,100583.81
2022-12-03T09:36:25.119Z,100578.03
2022-12-03T09:37:26.687Z,100586.94
2022-12-03T09:38:28.166Z,100583.97
2022-12-03T09:39:29.600Z,100583.97
2022-12-03T09:40:31.114Z,100587.34
2022-12-03T09:41:32.577Z,100584.34
2022-12-03T09:42:34.110Z,100584.09
2022-12-03T09:44:02.822Z,100582.66
2022-12-03T09:44:57.192Z,100581.94
2022-12-03T09:45:58.770Z,100583.38
2022-12-03T09:47:00.714Z,100582.53
2022-12-03T09:48:03.238Z,100574.84
2022-12-03T09:49:05.138Z,100564.13
2022-12-03T09:50:06.935Z,100571.13
2022-12-03T09:51:09.430Z,100574.28
2022-12-03T09:52:12.099Z,100563.19
2022-12-03T09:53:14.805Z,100573.44
2022-12-03T09:54:25.964Z,100571.03
2022-12-03T09:55:27.578Z,100572.94
2022-12-03T09:56:29.056Z,100569.97
2022-12-03T09:57:30.588Z,100571.19
2022-12-03T09:58:34.889Z,100572.88
2022-12-03T09:59:36.679Z,100567.69
2022-12-03T10:00:38.194Z,100573.22
2022-12-03T10:01:39.744Z,100565.50
2022-12-03T10:02:41.263Z,100565.06
2022-12-03T10:03:49.763Z,100566.75
2022-12-03T10:04:51.469Z,100565.41
2022-12-03T10:05:53.269Z,100565.41
2022-12-03T10:06:54.737Z,100570.50
2022-12-03T10:07:57.295Z,100567.34
2022-12-03T10:09:00.042Z,100572.66
2022-12-03T10:10:01.478Z,100569.13
2022-12-03T10:11:04.044Z,100567.00
2022-12-03T10:12:05.659Z,100561.19
2022-12-03T10:13:07.485Z,100545.50
2022-12-03T10:14:10.721Z,100560.13
2022-12-03T10:15:16.435Z,100564.91
2022-12-03T10:16:19.067Z,100556.22
2022-12-03T10:17:20.612Z,100556.22
2022-12-03T10:18:24.043Z,100554.91
2022-12-03T10:19:26.401Z,100553.81
2022-12-03T10:20:27.864Z,100558.16
2022-12-03T10:21:34.704Z,100542.00
2022-12-03T10:22:37.421Z,100552.84
2022-12-03T10:23:39.192Z,100544.88
2022-12-03T10:24:40.849Z,100548.50
2022-12-03T10:25:52.209Z,100544.16
2022-12-03T10:26:54.497Z,100553.97
2022-12-03T10:27:56.962Z,100544.31
2022-12-03T10:28:58.410Z,100544.69
2022-12-03T10:30:00.650Z,100546.97
2022-12-03T10:31:03.044Z,100539.03
2022-12-03T10:32:05.522Z,100531.06
2022-12-03T10:33:14.445Z,100532.28
2022-12-03T10:34:35.960Z,100527.56
2022-12-03T10:35:39.696Z,100525.03
2022-12-03T10:36:41.261Z,100500.03
2022-12-03T10:38:00.855Z,100512.13
2022-12-03T10:39:06.453Z,100516.34
2022-12-03T10:40:09.340Z,100516.59
2022-12-03T10:41:24.459Z,100521.66
2022-12-03T10:42:26.909Z,100511.50
2022-12-03T10:43:28.406Z,100509.13
2022-12-03T10:44:33.637Z,100511.66
2022-12-03T10:45:35.092Z,100516.97
2022-12-03T10:46:36.734Z,100515.63
2022-12-03T10:47:38.470Z,100514.94
2022-12-03T10:48:40.043Z,100512.78
2022-12-03T10:49:41.629Z,100513.03
2022-12-03T10:50:53.572Z,100512.28
2022-12-03T10:51:55.093Z,100503.97
2022-12-03T10:52:56.631Z,100506.75
2022-12-03T10:53:58.171Z,100506.41
2022-12-03T10:54:59.615Z,100507.59
2022-12-03T10:56:01.970Z,100503.84
2022-12-03T10:57:04.789Z,100503.38
2022-12-03T10:58:06.499Z,100505.41
2022-12-03T10:59:10.159Z,100506.00
2022-12-03T11:00:14.934Z,100508.53
2022-12-03T11:01:20.164Z,100499.38
2022-12-03T11:02:22.650Z,100505.31
2022-12-03T11:03:27.912Z,100497.56
2022-12-03T11:04:33.249Z,100499.25
2022-12-03T11:05:34.715Z,100499.13
2022-12-03T11:06:36.168Z,100491.78
2022-12-03T11:07:37.900Z,100493.81
2022-12-03T11:08:39.460Z,100495.88
2022-12-03T11:09:42.277Z,100488.59
2022-12-03T11:10:45.007Z,100492.59
2022-12-03T11:11:46.528Z,100495.72
2022-12-03T11:13:06.748Z,100487.13
2022-12-03T11:14:09.600Z,100481.72
2022-12-03T11:15:14.404Z,100484.00
2022-12-03T11:16:35.895Z,100485.19
2022-12-03T11:17:43.924Z,100483.50
2022-12-03T11:18:45.608Z,100477.44
2022-12-03T11:19:47.161Z,100475.88
2022-12-03T11:20:48.606Z,100478.66
2022-12-03T11:22:05.578Z,100478.75
2022-12-03T11:23:07.082Z,100479.34
2022-12-03T11:24:15.712Z,100478.84
2022-12-03T11:25:29.428Z,100468.94
2022-12-03T11:26:30.929Z,100472.91
2022-12-03T11:27:32.365Z,100473.50
2022-12-03T11:28:34.613Z,100465.28
2022-12-03T11:29:49.642Z,100460.91
2022-12-03T11:30:51.257Z,100461.25
2022-12-03T11:31:55.709Z,100459.88
2022-12-03T11:32:57.177Z,100465.81
2022-12-03T11:34:31.556Z,100471.72
2022-12-03T11:35:38.436Z,100458.41
2022-12-03T11:37:01.873Z,100454.53
2022-12-03T11:38:22.357Z,100455.53
2022-12-03T11:39:42.696Z,100456.00
2022-12-03T11:40:57.637Z,100462.44
2022-12-03T11:42:25.259Z,100455.44
2022-12-03T11:43:45.425Z,100454.31
2022-12-03T11:44:46.863Z,100460.97
2022-12-03T11:45:48.375Z,100467.63
2022-12-03T11:46:49.942Z,100460.97
2022-12-03T11:48:00.564Z,100465.44
2022-12-03T11:49:02.285Z,100453.25
2022-12-03T11:50:15.890Z,100457.09
2022-12-03T11:51:17.706Z,100454.94
2022-12-03T11:52:27.130Z,100459.88
2022-12-03T11:53:28.827Z,100452.41
2022-12-03T11:54:32.678Z,100450.97
2022-12-03T11:55:35.747Z,100454.25
2022-12-03T11:56:37.316Z,100449.53
2022-12-03T11:57:43.055Z,100444.31
2022-12-03T11:58:45.317Z,100443.22
2022-12-03T12:00:03.889Z,100442.13
2022-12-03T12:01:13.713Z,100440.44
2022-12-03T12:02:19.352Z,100437.56